Terminal Aerodrome Forecast
Issued by NWS

Home | Current Version | Previous Version | Text Only | Print | Product List | Glossary On
Versions: 1 2 3 4 5 6 7 8 9 10 11 12 13 14
000
FTUS42 TJSJ 262000 AAA
TAFJMZ
TAF AMD
TJMZ 262022Z 2620/2718 10011KT P6SM BKN030
     FM262300 06006KT P6SM FEW030 FEW040
     FM271530 27009KT P6SM SCT025 SCT040
      AMD NOT SKED 2623/2711=

USA.gov is the U.S. government's official web portal to all federal, state and local government web resources and services.